createdAt,value
2023-04-13T00:09:56.049Z,9.30
2023-04-13T00:21:56.506Z,9.40
2023-04-13T00:33:57.265Z,8.90
2023-04-13T00:45:57.460Z,9.60
2023-04-13T00:57:58.128Z,10.30
2023-04-13T01:09:58.372Z,9.30
2023-04-13T01:21:58.795Z,10.40
2023-04-13T01:33:59.467Z,9.90
2023-04-13T01:45:59.696Z,9.20
2023-04-13T01:58:00.142Z,9.70
2023-04-13T02:10:00.591Z,9.50
2023-04-13T02:22:01.062Z,9.20
2023-04-13T02:34:01.581Z,9.00
2023-04-13T02:46:02.055Z,9.50
2023-04-13T02:58:02.465Z,8.80
2023-04-13T03:10:02.860Z,14.50
2023-04-13T03:22:03.391Z,12.80
2023-04-13T03:34:03.761Z,11.10
2023-04-13T03:46:04.290Z,15.10
2023-04-13T03:58:04.658Z,12.70
2023-04-13T04:10:05.152Z,11.70
2023-04-13T04:22:05.637Z,14.90
2023-04-13T04:34:06.092Z,14.70
2023-04-13T04:46:06.558Z,12.00
2023-04-13T04:58:06.942Z,16.20
2023-04-13T05:10:07.396Z,16.90
2023-04-13T05:22:07.859Z,16.60
2023-04-13T05:34:08.320Z,15.60
2023-04-13T05:46:08.788Z,18.50
2023-04-13T05:58:09.192Z,22.90
2023-04-13T06:10:09.688Z,24.90
2023-04-13T06:22:10.107Z,16.00
2023-04-13T06:34:10.569Z,16.20
2023-04-13T06:46:11.048Z,14.00
2023-04-13T06:58:11.463Z,14.70
2023-04-13T07:10:11.923Z,14.70
2023-04-13T07:22:12.367Z,14.50
2023-04-13T07:34:12.808Z,11.80
2023-04-13T07:46:13.337Z,8.60
2023-04-13T07:58:13.744Z,9.90
2023-04-13T08:10:14.171Z,6.50
2023-04-13T08:22:14.633Z,6.20
2023-04-13T08:34:15.094Z,3.70
2023-04-13T08:46:15.571Z,3.10
2023-04-13T08:58:15.981Z,2.00
2023-04-13T09:10:16.461Z,1.50
2023-04-13T09:22:16.934Z,1.90
2023-04-13T09:34:17.368Z,2.50
2023-04-13T09:46:17.829Z,1.90
2023-04-13T09:58:18.258Z,2.30
2023-04-13T10:10:18.738Z,1.30
2023-04-13T10:22:19.148Z,1.00
2023-04-13T10:34:19.641Z,0.60
2023-04-13T10:46:20.102Z,1.40
2023-04-13T10:58:20.580Z,1.10
2023-04-13T11:10:21.015Z,2.20
2023-04-13T11:22:21.439Z,0.60
2023-04-13T11:34:21.903Z,1.20
2023-04-13T11:46:22.397Z,1.20
2023-04-13T11:58:22.783Z,11.10
2023-04-13T12:10:25.206Z,0.70
2023-04-13T12:22:23.966Z,0.80
2023-04-13T12:34:24.172Z,1.30
2023-04-13T12:46:24.642Z,1.00
2023-04-13T12:58:25.051Z,1.00
2023-04-13T13:10:29.696Z,1.10
2023-04-13T13:22:25.980Z,0.90
2023-04-13T13:34:26.398Z,0.60
2023-04-13T13:46:26.913Z,0.70
2023-04-13T13:58:28.090Z,2.00
2023-04-13T14:10:27.807Z,1.10
2023-04-13T14:22:28.231Z,4.10
2023-04-13T14:34:28.713Z,1.70
2023-04-13T14:46:29.147Z,0.90
2023-04-13T14:58:29.755Z,1.70
2023-04-13T15:10:30.050Z,2.00
2023-04-13T15:22:30.538Z,2.00
2023-04-13T15:34:30.963Z,1.90
2023-04-13T15:46:31.622Z,6.60
2023-04-13T15:58:31.873Z,3.40
2023-04-13T16:10:32.322Z,3.20
2023-04-13T16:22:33.288Z,4.70
2023-04-13T16:34:33.232Z,5.80
2023-04-13T16:46:33.757Z,4.80
2023-04-13T16:58:34.106Z,4.80
2023-04-13T17:10:34.553Z,2.80
2023-04-13T17:22:35.029Z,3.80
2023-04-13T17:34:35.527Z,4.40
2023-04-13T17:46:35.920Z,3.70
2023-04-13T17:58:36.375Z,3.70
2023-04-13T18:10:36.885Z,3.60
2023-04-13T18:22:37.325Z,3.50
2023-04-13T18:34:37.769Z,4.30
2023-04-13T18:46:38.248Z,4.20
2023-04-13T18:58:38.721Z,6.60
2023-04-13T19:10:39.088Z,6.30
2023-04-13T19:22:39.549Z,6.50
2023-04-13T19:34:39.970Z,34.70
2023-04-13T19:46:40.486Z,4.10
2023-04-13T19:58:40.900Z,4.30
2023-04-13T20:10:41.326Z,7.70
2023-04-13T20:22:41.819Z,5.80
2023-04-13T20:34:42.319Z,6.50
2023-04-13T20:46:42.774Z,6.50
2023-04-13T20:58:43.149Z,7.10
2023-04-13T21:10:43.619Z,10.40
2023-04-13T21:22:44.098Z,6.30
2023-04-13T21:34:44.513Z,7.70
2023-04-13T21:46:44.968Z,5.80
2023-04-13T21:58:45.441Z,5.20
2023-04-13T22:10:45.891Z,3.40
2023-04-13T22:22:46.314Z,2.70
2023-04-13T22:34:46.777Z,2.40
2023-04-13T22:46:47.273Z,2.30
2023-04-13T22:58:47.733Z,2.60
2023-04-13T23:10:48.126Z,3.00
2023-04-13T23:22:48.569Z,3.30
2023-04-13T23:34:49.032Z,4.30
2023-04-13T23:46:49.521Z,3.40
2023-04-13T23:58:58.858Z,5.00
